Time;durP1;ratioP1;P1;durP2;ratioP2;P2;SDS_P1;SDS_P2;PMS_P1;PMS_P2;Temp;Humidity;BMP_temperature;BMP_pressure;BME280_temperature;BME280_humidity;BME280_pressure;Samples;Min_cycle;Max_cycle;Signal;HPM_P1;HPM_P2
2023/04/11 00:01:32;;;;;;;6.50;4.25;;;;;;;10.12;67.42;97963.91;4159960;28;20061;-72
2023/04/11 00:03:32;;;;;;;4.28;3.30;;;;;;;10.13;66.87;97974.56;4158961;28;21022;-72
2023/04/11 00:05:32;;;;;;;5.18;3.50;;;;;;;10.10;67.48;97964.28;4161033;28;20045;-72
2023/04/11 00:07:33;;;;;;;4.82;3.80;;;;;;;10.09;67.50;97973.78;4159799;28;20143;-72
2023/04/11 00:09:33;;;;;;;6.20;3.90;;;;;;;10.12;66.57;97981.28;4159521;28;20152;-72
2023/04/11 00:11:34;;;;;;;6.40;4.00;;;;;;;10.16;67.28;97986.03;4158979;28;20052;-72
2023/04/11 00:13:36;;;;;;;5.88;4.05;;;;;;;10.12;68.64;97978.53;4158873;28;20049;-72
2023/04/11 00:15:38;;;;;;;4.88;3.55;;;;;;;10.11;68.71;97979.69;4162638;28;20052;-72
2023/04/11 00:17:40;;;;;;;6.03;4.10;;;;;;;10.10;69.20;97978.13;4159581;28;20060;-72
2023/04/11 00:19:42;;;;;;;5.10;3.92;;;;;;;10.15;70.93;97993.53;4159938;28;20400;-72
2023/04/11 00:21:42;;;;;;;6.95;4.25;;;;;;;10.05;70.35;97997.81;4159403;28;20128;-72
2023/04/11 00:23:43;;;;;;;5.75;4.40;;;;;;;10.01;71.80;97990.66;4158584;28;20140;-72
2023/04/11 00:25:43;;;;;;;6.53;4.30;;;;;;;9.96;72.52;97982.78;4159493;28;20064;-72
2023/04/11 00:27:43;;;;;;;7.88;4.40;;;;;;;9.90;74.76;97982.31;4159116;28;20091;-71
2023/04/11 00:29:44;;;;;;;6.10;4.10;;;;;;;9.81;76.93;97995.69;4159240;28;20429;-72
2023/04/11 00:31:44;;;;;;;5.57;3.85;;;;;;;9.71;77.94;97985.38;4160765;28;20049;-72
2023/04/11 00:33:44;;;;;;;6.35;4.75;;;;;;;9.61;78.10;97977.81;4159527;28;20043;-72
2023/04/11 00:35:45;;;;;;;6.20;4.30;;;;;;;9.56;77.59;97976.97;4165034;28;20150;-72
2023/04/11 00:37:45;;;;;;;4.90;4.13;;;;;;;9.48;80.58;97953.25;4170933;28;20073;-72
2023/04/11 00:39:49;;;;;;;6.30;4.03;;;;;;;9.40;80.98;97946.06;4162773;28;20029;-72
2023/04/11 00:41:49;;;;;;;7.00;4.32;;;;;;;9.36;80.74;97944.47;4161440;28;20030;-72
2023/04/11 00:43:49;;;;;;;5.63;4.00;;;;;;;9.29;81.55;97937.72;4162821;28;20340;-72
2023/04/11 00:45:50;;;;;;;8.00;4.20;;;;;;;9.29;81.86;97934.19;4162770;28;20521;-72
2023/04/11 00:47:52;;;;;;;5.78;3.75;;;;;;;9.26;84.94;97926.63;4164921;28;20046;-72
2023/04/11 00:49:52;;;;;;;5.95;3.90;;;;;;;9.30;83.02;97919.19;4168584;28;20489;-72
2023/04/11 00:51:53;;;;;;;6.60;3.97;;;;;;;9.22;83.22;97906.50;4166177;28;20049;-72
2023/04/11 00:53:53;;;;;;;6.05;4.00;;;;;;;9.23;83.82;97908.09;4161348;28;20356;-72
2023/04/11 00:55:54;;;;;;;6.57;4.10;;;;;;;9.19;85.17;97921.09;4162500;28;20112;-72
2023/04/11 00:57:55;;;;;;;6.60;4.38;;;;;;;9.09;86.87;97921.78;4162304;28;20478;-71
2023/04/11 00:59:57;;;;;;;6.50;4.53;;;;;;;9.05;86.22;97923.72;4161218;28;20096;-71
2023/04/11 01:01:58;;;;;;;6.43;4.17;;;;;;;9.01;86.20;97934.72;4162840;28;20057;-71
2023/04/11 01:03:59;;;;;;;6.78;4.28;;;;;;;9.04;85.39;97936.72;4161874;28;20883;-71
2023/04/11 01:06:00;;;;;;;6.63;4.35;;;;;;;9.02;86.05;97925.28;4163049;28;20136;-71
2023/04/11 01:08:01;;;;;;;6.93;4.70;;;;;;;9.02;85.63;97919.75;4162542;28;20085;-71
2023/04/11 01:10:04;;;;;;;7.75;4.70;;;;;;;8.93;88.79;97909.03;4165168;28;20049;-72
2023/04/11 01:12:05;;;;;;;6.63;4.68;;;;;;;8.89;88.46;97899.94;4169077;28;20091;-72
2023/04/11 01:14:05;;;;;;;6.30;4.53;;;;;;;8.85;87.71;97882.53;4160876;28;20025;-72
2023/04/11 01:16:07;;;;;;;6.40;4.43;;;;;;;8.89;86.45;97882.59;4164045;28;20029;-72
2023/04/11 01:18:08;;;;;;;6.40;4.70;;;;;;;8.87;88.32;97884.94;4162884;28;20374;-72
2023/04/11 01:20:09;;;;;;;6.82;4.60;;;;;;;8.82;91.06;97899.88;4161542;28;20116;-72
2023/04/11 01:22:10;;;;;;;5.75;4.10;;;;;;;8.78;91.58;97898.25;4161697;28;20057;-72
2023/04/11 01:24:10;;;;;;;6.15;4.68;;;;;;;8.72;91.08;97873.00;4161267;28;20061;-72
2023/04/11 01:26:11;;;;;;;7.13;4.82;;;;;;;8.74;91.53;97859.59;4161982;28;20355;-72
2023/04/11 01:28:11;;;;;;;7.32;4.90;;;;;;;8.73;91.27;97853.28;4163758;28;20412;-72
2023/04/11 01:30:12;;;;;;;9.13;5.15;;;;;;;8.73;90.27;97852.50;4161967;28;20404;-71
2023/04/11 01:32:12;;;;;;;6.63;4.72;;;;;;;8.69;93.49;97849.72;4162015;28;20143;-71
2023/04/11 01:34:14;;;;;;;7.05;5.07;;;;;;;8.66;91.61;97836.69;4161794;28;20081;-71
2023/04/11 01:36:15;;;;;;;7.80;4.73;;;;;;;8.73;91.32;97853.28;4161385;28;20029;-71
2023/04/11 01:38:15;;;;;;;7.38;4.30;;;;;;;8.72;93.22;97871.03;4161973;28;20272;-71
2023/04/11 01:40:17;;;;;;;6.38;4.78;;;;;;;8.66;92.83;97869.78;4167586;28;20032;-71
2023/04/11 01:42:19;;;;;;;6.40;4.35;;;;;;;8.64;95.13;97863.06;4160871;28;20038;-71
2023/04/11 01:44:20;;;;;;;6.30;4.55;;;;;;;8.64;94.18;97857.56;4162005;28;20469;-71
2023/04/11 01:46:20;;;;;;;5.85;4.32;;;;;;;8.65;93.02;97862.69;4164941;28;20066;-72
2023/04/11 01:48:21;;;;;;;7.25;4.88;;;;;;;8.58;96.65;97862.59;4162593;28;20041;-71
2023/04/11 01:50:22;;;;;;;6.28;4.35;;;;;;;8.56;95.97;97881.50;4161008;28;20037;-71
2023/04/11 01:52:22;;;;;;;6.50;4.45;;;;;;;8.52;96.28;97866.88;4162956;28;20079;-71
2023/04/11 01:54:22;;;;;;;6.97;5.10;;;;;;;8.61;94.69;97869.34;4161514;28;20497;-71
2023/04/11 01:56:23;;;;;;;8.80;4.65;;;;;;;8.60;97.23;97868.53;4161174;28;20112;-71
2023/04/11 01:58:23;;;;;;;7.10;4.90;;;;;;;8.57;98.51;97876.78;4163069;28;20045;-71
2023/04/11 02:00:23;;;;;;;7.10;4.60;;;;;;;8.51;99.36;97881.03;4160563;28;20041;-71
2023/04/11 02:02:24;;;;;;;6.22;4.72;;;;;;;8.49;100.00;97888.91;4161914;28;20077;-71
2023/04/11 02:04:25;;;;;;;5.90;4.32;;;;;;;8.51;100.00;97892.88;4162040;28;20055;-71
2023/04/11 02:06:26;;;;;;;7.32;4.60;;;;;;;8.54;100.00;97875.59;4160746;28;20021;-72
2023/04/11 02:08:26;;;;;;;7.30;4.85;;;;;;;8.51;99.58;97859.78;4161654;28;20049;-71
2023/04/11 02:10:27;;;;;;;7.13;4.90;;;;;;;8.47;100.00;97856.22;4160586;28;20044;-71
2023/04/11 02:12:27;;;;;;;10.63;5.25;;;;;;;8.41;100.00;97864.03;4161692;28;20049;-72
2023/04/11 02:14:39;;;;;;;8.15;5.53;;;;;;;8.34;100.00;97869.44;4160878;28;20053;-71
2023/04/11 02:16:53;;;;;;;6.40;4.57;;;;;;;8.34;100.00;97880.44;4161579;28;20038;-72
2023/04/11 02:18:54;;;;;;;5.75;4.40;;;;;;;8.33;100.00;97870.59;4161520;28;20057;-71
2023/04/11 02:20:55;;;;;;;6.32;4.25;;;;;;;8.30;100.00;97865.06;4162818;28;20144;-71
2023/04/11 02:22:57;;;;;;;6.78;4.68;;;;;;;8.29;100.00;97878.06;4159796;28;20037;-71
2023/04/11 02:24:57;;;;;;;5.93;4.15;;;;;;;8.30;100.00;97859.56;4162902;28;20038;-71
2023/04/11 02:27:00;;;;;;;9.55;4.45;;;;;;;8.30;100.00;97860.34;4160729;28;20091;-72
2023/04/11 02:29:00;;;;;;;7.18;4.57;;;;;;;8.31;100.00;97869.41;4159825;28;20053;-72
2023/04/11 02:31:01;;;;;;;6.78;4.32;;;;;;;8.35;100.00;97870.25;4161113;28;20562;-72
2023/04/11 02:33:02;;;;;;;6.85;4.45;;;;;;;8.36;100.00;97867.13;4160389;28;20045;-71
2023/04/11 02:35:04;;;;;;;8.38;4.28;;;;;;;8.37;100.00;97868.72;4161359;28;20096;-71
2023/04/11 02:37:04;;;;;;;7.50;4.43;;;;;;;8.33;100.00;97862.34;4162625;28;20128;-71
2023/04/11 02:39:05;;;;;;;6.15;4.50;;;;;;;8.27;100.00;97855.56;4161336;28;20072;-71
2023/04/11 02:41:07;;;;;;;6.63;4.43;;;;;;;8.26;100.00;97853.97;4160675;28;20029;-71
2023/04/11 02:43:07;;;;;;;4.95;3.38;;;;;;;8.27;100.00;97855.56;4159072;28;20064;-71
2023/04/11 02:45:08;;;;;;;6.32;4.03;;;;;;;8.29;100.00;97866.25;4159968;28;20033;-71
2023/04/11 02:47:08;;;;;;;5.78;4.03;;;;;;;8.32;100.00;97882.00;4160748;28;20447;-71
2023/04/11 02:49:09;;;;;;;5.57;4.15;;;;;;;8.32;100.00;97877.28;4159964;28;20443;-71
2023/04/11 02:51:10;;;;;;;5.03;3.60;;;;;;;8.41;100.00;97888.03;4164683;28;20103;-71
2023/04/11 02:53:10;;;;;;;8.38;4.18;;;;;;;8.39;100.00;97882.91;4160065;28;20077;-71
2023/04/11 02:55:11;;;;;;;4.82;3.75;;;;;;;8.35;100.00;97878.50;4160956;28;20098;-71
2023/04/11 02:57:11;;;;;;;5.30;3.67;;;;;;;8.43;100.00;97867.19;4161104;28;20029;-71
2023/04/11 02:59:12;;;;;;;5.68;4.03;;;;;;;8.42;100.00;97868.34;4159805;28;20529;-71
2023/04/11 03:01:20;;;;;;;6.53;3.72;;;;;;;8.40;100.00;97870.72;4160212;28;20030;-71
2023/04/11 03:03:20;;;;;;;7.38;3.72;;;;;;;8.38;100.00;97870.31;4159262;28;20473;-71
2023/04/11 03:05:21;;;;;;;4.93;3.53;;;;;;;8.35;100.00;97864.72;4163265;28;20056;-71
2023/04/11 03:07:21;;;;;;;4.47;3.30;;;;;;;8.35;100.00;97845.44;4161041;28;20534;-71
2023/04/11 03:09:24;;;;;;;7.78;3.63;;;;;;;8.40;100.00;97839.59;4160218;28;20045;-71
2023/04/11 03:11:25;;;;;;;3.85;2.83;;;;;;;8.38;100.00;97826.19;4163097;28;20033;-71
2023/04/11 03:13:25;;;;;;;4.30;2.85;;;;;;;8.40;100.00;97845.91;4160372;28;20366;-71
2023/04/11 03:15:26;;;;;;;4.43;2.88;;;;;;;8.35;100.00;97848.19;4160511;28;20041;-71
2023/04/11 03:17:27;;;;;;;5.03;2.20;;;;;;;8.45;100.00;97864.06;4161202;28;20052;-71
2023/04/11 03:19:27;;;;;;;4.28;2.83;;;;;;;8.39;100.00;97871.88;4159506;28;20038;-71
2023/04/11 03:21:27;;;;;;;3.58;2.40;;;;;;;8.45;100.00;97866.84;4160190;28;20266;-71
2023/04/11 03:23:28;;;;;;;3.72;2.35;;;;;;;8.52;100.00;97872.38;4158787;28;20528;-71
2023/04/11 03:25:28;;;;;;;3.65;2.55;;;;;;;8.46;100.00;97884.16;4160264;28;20072;-71
2023/04/11 03:27:28;;;;;;;3.80;2.75;;;;;;;8.44;100.00;97892.81;4160853;28;20041;-71
2023/04/11 03:29:29;;;;;;;4.60;3.20;;;;;;;8.39;100.00;97896.69;4159484;28;20080;-71
2023/04/11 03:31:29;;;;;;;4.20;2.70;;;;;;;8.36;100.00;97902.19;4160441;28;20048;-71
2023/04/11 03:33:29;;;;;;;4.70;2.95;;;;;;;8.36;100.00;97899.41;4159682;28;20373;-71
2023/04/11 03:35:30;;;;;;;4.95;2.75;;;;;;;8.30;100.00;97898.13;4160188;28;20492;-71
2023/04/11 03:37:30;;;;;;;4.07;2.47;;;;;;;8.32;100.00;97918.63;4160062;28;20119;-72
2023/04/11 03:39:31;;;;;;;3.55;2.10;;;;;;;8.28;100.00;97917.81;4159458;28;20093;-72
2023/04/11 03:41:31;;;;;;;2.88;2.08;;;;;;;8.20;100.00;97918.09;4160132;28;20033;-72
2023/04/11 03:43:31;;;;;;;2.92;1.73;;;;;;;8.04;100.00;97899.81;4158590;28;20065;-72
2023/04/11 03:45:32;;;;;;;3.20;1.67;;;;;;;7.90;100.00;97899.63;4160014;28;20052;-72
2023/04/11 03:47:32;;;;;;;2.40;1.50;;;;;;;7.82;100.00;97870.41;4161035;28;20459;-72
2023/04/11 03:49:33;;;;;;;2.38;1.63;;;;;;;7.83;100.00;97844.44;4159545;28;20311;-72
2023/04/11 03:51:33;;;;;;;2.50;1.10;;;;;;;7.82;100.00;97862.94;4158673;28;20440;-72
2023/04/11 03:53:33;;;;;;;1.75;1.10;;;;;;;7.77;100.00;97884.50;4159229;28;20041;-72
2023/04/11 03:55:34;;;;;;;1.17;1.00;;;;;;;7.69;100.00;97902.09;4146290;28;20041;-72
2023/04/11 03:57:35;;;;;;;2.30;1.10;;;;;;;7.66;100.00;97883.56;4164793;28;20068;-72
2023/04/11 03:59:35;;;;;;;1.52;1.20;;;;;;;7.56;100.00;97866.53;4159944;28;20038;-72
2023/04/11 04:01:36;;;;;;;2.75;1.20;;;;;;;7.49;100.00;97865.66;4159284;28;20034;-72
2023/04/11 04:03:37;;;;;;;1.90;1.13;;;;;;;7.44;100.00;97869.50;4158255;28;20075;-72
2023/04/11 04:05:37;;;;;;;3.63;1.48;;;;;;;7.42;100.00;97863.59;4158445;28;20080;-72
2023/04/11 04:07:37;;;;;;;1.77;1.10;;;;;;;7.40;100.00;97862.38;4160293;28;20064;-72
2023/04/11 04:09:40;;;;;;;2.78;1.50;;;;;;;7.41;100.00;97867.50;4159533;28;20052;-72
2023/04/11 04:11:40;;;;;;;2.50;1.15;;;;;;;7.41;100.00;97875.75;4159003;28;20405;-72
2023/04/11 04:13:40;;;;;;;3.10;1.25;;;;;;;7.45;100.00;97867.56;4158981;28;20046;-72
2023/04/11 04:15:41;;;;;;;1.38;1.05;;;;;;;7.42;100.00;97874.59;4159741;28;20050;-72
2023/04/11 04:17:41;;;;;;;1.75;1.17;;;;;;;7.40;100.00;97876.94;4160739;28;20589;-72
2023/04/11 04:19:43;;;;;;;1.40;1.05;;;;;;;7.42;100.00;97879.31;4158997;28;20525;-72
2023/04/11 04:21:44;;;;;;;2.45;0.98;;;;;;;7.40;100.00;97876.94;4159176;28;20374;-72
2023/04/11 04:23:47;;;;;;;1.58;1.10;;;;;;;7.39;100.00;97888.31;4158663;28;20053;-72
2023/04/11 04:25:49;;;;;;;2.58;1.08;;;;;;;7.43;100.00;97889.16;4159172;28;20038;-72
2023/04/11 04:27:52;;;;;;;3.60;1.20;;;;;;;7.40;100.00;97887.94;4165804;28;20059;-72
2023/04/11 04:29:55;;;;;;;3.90;2.40;;;;;;;7.42;100.00;97891.09;4159298;28;20284;-72
2023/04/11 04:31:56;;;;;;;1.20;0.90;;;;;;;7.38;100.00;97883.97;4158349;28;20037;-72
2023/04/11 04:33:57;;;;;;;2.67;1.20;;;;;;;7.34;100.00;97872.91;4158187;28;20392;-72
2023/04/11 04:35:58;;;;;;;2.25;1.30;;;;;;;7.34;100.00;97878.41;4165815;28;20119;-72
2023/04/11 04:38:05;;;;;;;2.45;1.10;;;;;;;7.33;100.00;97869.34;4159234;28;20048;-72
2023/04/11 04:40:10;;;;;;;2.78;1.50;;;;;;;7.36;100.00;97880.78;4159870;28;20053;-72
2023/04/11 04:42:11;;;;;;;2.50;1.00;;;;;;;7.39;100.00;97874.56;4158658;28;20032;-72
2023/04/11 04:44:11;;;;;;;1.73;1.35;;;;;;;7.41;100.00;97872.22;4159283;28;20037;-72
2023/04/11 04:46:11;;;;;;;1.42;1.00;;;;;;;7.41;100.00;97853.75;4160591;28;20361;-72
2023/04/11 04:48:13;;;;;;;1.58;0.90;;;;;;;7.46;100.00;97858.16;4158426;28;20382;-72
2023/04/11 04:50:13;;;;;;;1.58;1.05;;;;;;;7.51;100.00;97850.34;4164120;28;20081;-72
2023/04/11 04:52:14;;;;;;;2.28;1.00;;;;;;;7.56;100.00;97846.47;4158645;28;20525;-71
2023/04/11 04:54:18;;;;;;;2.50;1.10;;;;;;;7.56;100.00;97852.78;4141827;28;20343;-71
2023/04/11 04:56:18;;;;;;;1.10;1.00;;;;;;;7.52;100.00;97864.88;4138391;28;20044;-72
2023/04/11 04:58:18;;;;;;;2.42;0.98;;;;;;;7.45;100.00;97865.59;4158119;28;20026;-72
2023/04/11 05:00:19;;;;;;;3.63;2.35;;;;;;;7.44;100.00;97874.22;4159167;28;20450;-71
2023/04/11 05:02:20;;;;;;;1.83;1.17;;;;;;;7.38;100.00;97873.75;4158780;28;20030;-71
2023/04/11 05:04:21;;;;;;;1.10;0.82;;;;;;;7.33;100.00;97872.13;4159927;28;20040;-71
2023/04/11 05:06:22;;;;;;;1.77;0.98;;;;;;;7.30;100.00;97872.88;4157945;28;20041;-72
2023/04/11 05:08:22;;;;;;;1.92;0.80;;;;;;;7.30;100.00;97872.88;4163065;28;20490;-72
2023/04/11 05:10:23;;;;;;;3.50;0.80;;;;;;;7.28;100.00;97866.94;4159522;28;20049;-72
2023/04/11 05:12:25;;;;;;;2.35;0.90;;;;;;;7.29;100.00;97865.78;4157386;28;20764;-72
2023/04/11 05:14:26;;;;;;;;;;;;;;;7.30;100.00;97881.13;4160918;28;20033;-72
2023/04/11 05:16:26;;;;;;;2.25;0.80;;;;;;;7.27;100.00;97881.84;4164672;28;19920;-72
2023/04/11 05:18:28;;;;;;;2.08;0.90;;;;;;;7.33;100.00;97899.63;4158768;28;20034;-72
2023/04/11 05:20:28;;;;;;;4.00;0.95;;;;;;;7.30;100.00;97894.09;4158222;28;20077;-72
2023/04/11 05:22:29;;;;;;;1.27;0.95;;;;;;;7.28;100.00;97890.88;4161562;28;20037;-71
2023/04/11 05:24:29;;;;;;;2.55;0.90;;;;;;;7.31;100.00;97871.69;4167264;28;20069;-71
2023/04/11 05:26:30;;;;;;;2.50;0.90;;;;;;;7.32;100.00;97858.72;4160891;28;20382;-71
2023/04/11 05:28:31;;;;;;;1.30;0.80;;;;;;;7.32;100.00;97865.03;4162313;28;20385;-71
2023/04/11 05:30:31;;;;;;;1.30;0.88;;;;;;;7.28;100.00;97872.44;4161530;28;20053;-71
2023/04/11 05:32:31;;;;;;;3.20;1.00;;;;;;;7.28;100.00;97880.69;4164485;28;20125;-71
2023/04/11 05:34:33;;;;;;;1.40;0.90;;;;;;;7.28;100.00;97883.47;4164290;28;20564;-71
2023/04/11 05:36:35;;;;;;;2.28;1.00;;;;;;;7.23;100.00;97881.00;4163189;28;20053;-71
2023/04/11 05:38:35;;;;;;;2.00;1.08;;;;;;;7.33;100.00;97899.63;4161108;28;20053;-71
2023/04/11 05:40:36;;;;;;;0.88;0.80;;;;;;;7.30;100.00;97897.63;4160286;28;20134;-71
2023/04/11 05:42:36;;;;;;;2.40;1.10;;;;;;;7.28;100.00;97886.22;4162702;28;20095;-71
2023/04/11 05:44:38;;;;;;;2.10;1.00;;;;;;;7.27;100.00;97886.56;4160838;28;20430;-72
2023/04/11 05:46:39;;;;;;;2.55;1.10;;;;;;;7.28;100.00;97896.38;4162784;28;20048;-72
2023/04/11 05:48:40;;;;;;;2.17;1.00;;;;;;;7.23;100.00;97893.97;4166291;28;20452;-71
2023/04/11 05:50:40;;;;;;;2.17;1.00;;;;;;;7.25;100.00;97881.44;4161799;28;20115;-71
2023/04/11 05:52:40;;;;;;;2.97;1.00;;;;;;;7.26;100.00;97893.22;4160692;28;20045;-71
2023/04/11 05:54:41;;;;;;;0.90;0.80;;;;;;;7.28;100.00;97894.47;4160628;28;20048;-71
2023/04/11 05:56:41;;;;;;;4.22;1.98;;;;;;;7.26;100.00;97888.50;4162417;28;20524;-71
2023/04/11 05:58:42;;;;;;;5.53;2.20;;;;;;;7.24;100.00;97885.34;4160577;28;20030;-71
2023/04/11 06:00:44;;;;;;;2.90;1.77;;;;;;;7.31;100.00;97879.94;4160963;28;20037;-71
2023/04/11 06:02:46;;;;;;;5.15;2.75;;;;;;;7.31;100.00;97885.44;4161206;28;20125;-71
2023/04/11 06:04:46;;;;;;;2.35;1.83;;;;;;;7.35;100.00;97895.72;4161729;28;20053;-71
2023/04/11 06:06:47;;;;;;;2.78;1.20;;;;;;;7.39;100.00;97902.88;4160582;28;20393;-71
2023/04/11 06:08:48;;;;;;;3.65;1.23;;;;;;;7.44;100.00;97896.22;4162444;28;20052;-71
2023/04/11 06:10:48;;;;;;;2.75;1.00;;;;;;;7.45;100.00;97901.38;4161815;28;20064;-71
2023/04/11 06:12:48;;;;;;;1.73;0.90;;;;;;;7.45;100.00;97906.91;4159316;28;20045;-71
2023/04/11 06:14:49;;;;;;;1.88;0.93;;;;;;;7.44;100.00;97902.53;4160661;28;20468;-71
2023/04/11 06:16:49;;;;;;;2.40;1.10;;;;;;;7.46;100.00;97904.94;4161620;28;20136;-71
2023/04/11 06:18:49;;;;;;;2.35;1.05;;;;;;;7.46;100.00;97908.47;4160129;28;20060;-71
2023/04/11 06:20:50;;;;;;;2.63;1.27;;;;;;;7.45;100.00;97906.09;4167616;28;20481;-71
2023/04/11 06:22:50;;;;;;;2.63;1.20;;;;;;;7.43;100.00;97908.41;4160657;28;20068;-71
2023/04/11 06:24:51;;;;;;;3.30;0.95;;;;;;;7.46;100.00;97910.44;4163255;28;20086;-71
2023/04/11 06:26:51;;;;;;;5.65;1.30;;;;;;;7.47;100.00;97912.81;4159729;28;20060;-71
2023/04/11 06:28:52;;;;;;;4.30;1.15;;;;;;;7.46;100.00;97915.94;4162869;28;20080;-71
2023/04/11 06:30:52;;;;;;;7.43;1.40;;;;;;;7.53;100.00;97921.53;4163405;28;20093;-71
2023/04/11 06:32:52;;;;;;;3.97;1.10;;;;;;;7.58;100.00;97912.97;4158061;28;20493;-71
2023/04/11 06:34:53;;;;;;;8.55;1.50;;;;;;;7.58;100.00;97915.72;4161157;28;20152;-71
2023/04/11 06:36:53;;;;;;;1.80;1.20;;;;;;;7.59;100.00;97922.81;4161341;28;20086;-71
2023/04/11 06:38:53;;;;;;;2.65;0.90;;;;;;;7.57;100.00;97911.38;4166785;28;20126;-71
2023/04/11 06:40:55;;;;;;;1.92;1.20;;;;;;;7.63;100.00;97912.66;4160552;28;20056;-71
2023/04/11 06:42:57;;;;;;;2.88;1.02;;;;;;;7.59;100.00;97904.31;4160399;28;20037;-71
2023/04/11 06:44:57;;;;;;;3.03;1.17;;;;;;;7.62;100.00;97916.56;4160333;28;20443;-71
2023/04/11 06:46:58;;;;;;;3.80;2.00;;;;;;;7.69;100.00;97911.13;4159038;28;20061;-71
2023/04/11 06:48:58;;;;;;;5.78;1.40;;;;;;;7.65;100.00;97909.53;4160941;28;20128;-71
2023/04/11 06:50:58;;;;;;;5.22;1.50;;;;;;;7.71;100.00;97908.81;4163227;28;20419;-71
2023/04/11 06:52:59;;;;;;;4.22;1.60;;;;;;;7.79;100.00;97920.75;4161265;28;20906;-71
2023/04/11 06:54:59;;;;;;;3.70;1.42;;;;;;;7.94;100.00;97918.94;4159977;28;20080;-71
2023/04/11 06:57:01;;;;;;;5.07;1.65;;;;;;;8.01;100.00;97919.81;4160715;28;20179;-71
2023/04/11 06:59:01;;;;;;;7.43;1.67;;;;;;;8.07;100.00;97921.09;4161977;28;20045;-71
2023/04/11 07:01:01;;;;;;;6.72;1.65;;;;;;;8.22;100.00;97915.75;4161163;28;20056;-71
2023/04/11 07:03:06;;;;;;;4.25;1.70;;;;;;;8.34;100.00;97915.50;4160727;28;20343;-71
2023/04/11 07:05:09;;;;;;;5.45;1.65;;;;;;;8.51;100.00;97919.63;4160019;28;20095;-71
2023/04/11 07:07:09;;;;;;;;;;;;;;;8.60;99.92;97923.69;4161507;28;20030;-71
2023/04/11 07:09:11;;;;;;;4.57;1.85;;;;;;;8.73;98.21;97925.00;4159631;28;19909;-72
2023/04/11 07:11:11;;;;;;;2.75;1.27;;;;;;;8.92;96.97;97921.22;4160961;28;20030;-71
2023/04/11 07:13:12;;;;;;;3.25;1.55;;;;;;;9.06;95.77;97923.34;4164471;28;20398;-71
2023/04/11 07:15:12;;;;;;;4.38;1.52;;;;;;;9.18;95.27;97928.53;4160418;28;20041;-71
2023/04/11 07:17:12;;;;;;;4.30;1.27;;;;;;;9.20;93.02;97937.25;4160155;28;20045;-71
2023/04/11 07:19:13;;;;;;;3.10;1.40;;;;;;;9.18;91.37;97941.56;4159426;28;20041;-71
2023/04/11 07:21:14;;;;;;;4.15;1.35;;;;;;;9.29;92.25;97939.69;4160506;28;20056;-71
2023/04/11 07:23:14;;;;;;;3.75;1.40;;;;;;;9.36;91.86;97941.72;4158586;28;20049;-71
2023/04/11 07:25:14;;;;;;;3.88;1.35;;;;;;;9.44;91.77;97943.38;4160295;28;20120;-71
2023/04/11 07:27:16;;;;;;;1.98;1.30;;;;;;;9.48;85.75;97939.44;4159507;28;20045;-71
2023/04/11 07:29:16;;;;;;;4.40;1.48;;;;;;;9.43;84.82;97945.34;4145159;28;20037;-71
2023/04/11 07:31:20;;;;;;;3.90;1.10;;;;;;;9.43;86.67;97947.28;4160584;28;20053;-71
2023/04/11 07:33:20;;;;;;;2.17;1.23;;;;;;;9.43;88.37;97950.03;4161896;28;20044;-71
2023/04/11 07:35:21;;;;;;;2.20;1.02;;;;;;;9.45;85.49;97953.22;4160097;28;20045;-71
2023/04/11 07:37:21;;;;;;;3.95;1.63;;;;;;;9.46;86.36;97947.31;4160362;28;20044;-71
2023/04/11 07:39:21;;;;;;;6.45;1.20;;;;;;;9.53;85.09;97949.34;4159810;28;20034;-71
2023/04/11 07:41:22;;;;;;;2.75;1.17;;;;;;;9.43;85.50;97963.84;4159528;28;20053;-71
2023/04/11 07:43:23;;;;;;;2.85;1.17;;;;;;;9.46;83.51;97955.59;4163028;28;20124;-71
2023/04/11 07:45:23;;;;;;;3.15;1.20;;;;;;;9.34;83.64;97957.84;4160148;28;20053;-71
2023/04/11 07:47:24;;;;;;;4.32;1.20;;;;;;;9.34;81.96;97949.56;4158703;28;20053;-71
2023/04/11 07:49:24;;;;;;;2.45;1.00;;;;;;;9.25;83.03;97960.94;4174902;28;20045;-71
2023/04/11 07:51:25;;;;;;;5.05;1.60;;;;;;;9.35;83.73;97959.44;4159916;28;20049;-71
2023/04/11 07:53:26;;;;;;;7.28;1.60;;;;;;;9.29;83.07;97959.81;4158504;28;20457;-71
2023/04/11 07:55:26;;;;;;;2.70;1.48;;;;;;;9.38;82.79;97953.97;4159032;28;20088;-71
2023/04/11 07:57:28;;;;;;;5.18;1.90;;;;;;;9.52;84.50;97964.34;4159463;28;20075;-71
2023/04/11 07:59:28;;;;;;;3.70;1.40;;;;;;;9.72;82.95;97960.13;4159526;28;20045;-71
2023/04/11 08:01:28;;;;;;;3.20;1.40;;;;;;;9.84;81.49;97961.75;4158584;28;20045;-71
2023/04/11 08:03:29;;;;;;;3.20;1.40;;;;;;;9.82;78.53;97961.34;4159965;28;20033;-71
2023/04/11 08:05:30;;;;;;;5.90;1.60;;;;;;;9.87;78.31;97968.50;4162198;28;20044;-71
2023/04/11 08:07:30;;;;;;;6.38;1.70;;;;;;;9.85;79.49;97957.84;4160944;28;20065;-71
2023/04/11 08:09:31;;;;;;;3.97;1.38;;;;;;;9.82;78.08;97966.88;4159743;28;20077;-71
2023/04/11 08:11:31;;;;;;;3.33;1.40;;;;;;;9.81;77.13;97974.38;4158971;28;20033;-71
2023/04/11 08:13:31;;;;;;;6.38;1.65;;;;;;;9.77;75.93;97967.25;4158590;28;20080;-71
2023/04/11 08:15:33;;;;;;;3.08;1.10;;;;;;;9.82;76.19;97966.88;4160193;28;20056;-71
2023/04/11 08:17:37;;;;;;;3.17;1.60;;;;;;;9.87;76.74;97960.22;4162944;28;20084;-71
2023/04/11 08:19:37;;;;;;;4.78;1.60;;;;;;;9.78;75.23;97977.13;4162397;28;20477;-71
2023/04/11 08:21:38;;;;;;;5.50;1.85;;;;;;;9.87;75.24;97974.03;4163022;28;20036;-71
2023/04/11 08:23:38;;;;;;;5.60;1.40;;;;;;;9.99;73.92;97963.44;4158902;28;20037;-71
2023/04/11 08:25:39;;;;;;;3.40;1.55;;;;;;;9.84;74.63;97967.28;4159010;28;20208;-71
2023/04/11 08:27:40;;;;;;;6.78;1.83;;;;;;;9.98;76.15;97959.09;4158684;28;20558;-71
2023/04/11 08:29:40;;;;;;;1.98;1.38;;;;;;;10.09;78.32;97962.72;4158977;28;20478;-71
2023/04/11 08:31:43;;;;;;;3.92;1.30;;;;;;;10.31;77.23;97979.41;4160255;28;20045;-71
2023/04/11 08:33:43;;;;;;;5.30;1.58;;;;;;;10.41;76.96;97962.06;4160828;28;20040;-71
2023/04/11 08:35:44;;;;;;;4.75;1.60;;;;;;;10.46;75.37;97960.91;4161911;28;20049;-71
2023/04/11 08:37:44;;;;;;;3.70;1.55;;;;;;;10.56;73.21;97960.94;4159498;28;20037;-72
2023/04/11 08:39:44;;;;;;;5.25;1.58;;;;;;;10.65;71.75;97963.34;4158513;28;20044;-71
2023/04/11 08:41:46;;;;;;;3.58;1.52;;;;;;;10.58;70.52;97968.84;4159653;28;20187;-72
2023/04/11 08:43:47;;;;;;;4.03;1.40;;;;;;;10.65;71.73;97971.63;4158027;28;20402;-72
2023/04/11 08:45:47;;;;;;;3.33;1.60;;;;;;;10.74;70.80;97971.28;4160213;28;20041;-72
2023/04/11 08:47:48;;;;;;;3.08;1.10;;;;;;;10.81;72.35;97955.47;4158669;28;20196;-71
2023/04/11 08:49:49;;;;;;;3.33;1.35;;;;;;;10.90;70.59;97974.47;4158812;28;20483;-71
2023/04/11 08:51:52;;;;;;;5.15;1.38;;;;;;;10.93;70.66;97968.16;4158858;28;20497;-71
2023/04/11 08:53:59;;;;;;;3.08;1.10;;;;;;;10.93;69.40;97991.09;4159382;28;20041;-71
2023/04/11 08:55:59;;;;;;;3.72;1.52;;;;;;;10.89;70.27;97978.44;4160007;28;20033;-71
2023/04/11 08:58:01;;;;;;;5.15;1.40;;;;;;;10.62;68.09;97994.56;4161631;28;20047;-71
2023/04/11 09:00:12;;;;;;;3.50;1.63;;;;;;;10.20;69.31;97979.34;4162503;28;20049;-72
2023/04/11 09:02:13;;;;;;;7.88;1.75;;;;;;;10.36;70.97;97985.38;4161516;28;20038;-72
2023/04/11 09:04:13;;;;;;;4.32;1.40;;;;;;;10.19;69.59;97972.25;4161657;28;20037;-71
2023/04/11 09:06:13;;;;;;;2.83;1.55;;;;;;;10.26;70.60;97993.59;4162822;28;20390;-71
2023/04/11 09:08:15;;;;;;;3.03;1.40;;;;;;;10.05;72.05;98014.41;4166350;28;20325;-71
2023/04/11 09:10:19;;;;;;;3.43;1.30;;;;;;;9.69;77.05;98040.22;4160680;28;20033;-71
2023/04/11 09:12:27;;;;;;;2.33;1.02;;;;;;;8.54;85.46;98059.53;4162599;28;20264;-71
2023/04/11 09:14:29;;;;;;;2.28;1.05;;;;;;;7.23;92.69;98072.81;4161631;28;20340;-71
2023/04/11 09:16:29;;;;;;;4.30;1.10;;;;;;;6.78;99.00;98060.56;4162193;28;20429;-71
2023/04/11 09:18:32;;;;;;;1.50;1.08;;;;;;;6.56;100.00;98069.56;4165873;28;20042;-71
2023/04/11 09:20:32;;;;;;;1.38;0.95;;;;;;;6.46;100.00;98066.22;4161869;28;20049;-71
2023/04/11 09:22:35;;;;;;;1.52;0.80;;;;;;;6.39;100.00;98049.59;4161072;28;20056;-71
2023/04/11 09:24:36;;;;;;;0.98;0.95;;;;;;;6.26;100.00;98050.88;4160291;28;20072;-71
2023/04/11 09:26:36;;;;;;;2.70;0.90;;;;;;;6.30;100.00;98046.25;4162194;28;20037;-71
2023/04/11 09:28:43;;;;;;;3.42;1.10;;;;;;;6.38;100.00;98045.25;4161603;28;20402;-71
2023/04/11 09:30:51;;;;;;;1.17;0.98;;;;;;;6.54;100.00;98045.19;4166053;28;20463;-71
2023/04/11 09:32:52;;;;;;;2.05;1.30;;;;;;;6.65;100.00;98043.44;4160835;28;20398;-71